sensor_id;sensor_type;location;lat;lon;timestamp;P1;durP1;ratioP1;P2;durP2;ratioP2
25169;SDS011;13129;48.012;10.352;2022-10-26T03:31:04;3.80;;;2.47;;
25169;SDS011;13129;48.012;10.352;2022-10-26T03:33:30;2.42;;;2.22;;
25169;SDS011;13129;48.012;10.352;2022-10-26T03:35:55;2.45;;;2.25;;
25169;SDS011;13129;48.012;10.352;2022-10-26T03:38:21;2.50;;;2.30;;
25169;SDS011;13129;48.012;10.352;2022-10-26T03:40:47;2.42;;;2.22;;
25169;SDS011;13129;48.012;10.352;2022-10-26T03:43:13;2.83;;;2.20;;
25169;SDS011;13129;48.012;10.352;2022-10-26T03:45:38;2.47;;;2.30;;
25169;SDS011;13129;48.012;10.352;2022-10-26T03:48:04;4.18;;;2.30;;
25169;SDS011;13129;48.012;10.352;2022-10-26T03:50:30;2.55;;;2.40;;
25169;SDS011;13129;48.012;10.352;2022-10-26T03:52:55;3.97;;;2.35;;
25169;SDS011;13129;48.012;10.352;2022-10-26T03:55:21;2.78;;;2.17;;
25169;SDS011;13129;48.012;10.352;2022-10-26T03:57:47;2.25;;;2.05;;
25169;SDS011;13129;48.012;10.352;2022-10-26T04:00:14;2.17;;;2.08;;
25169;SDS011;13129;48.012;10.352;2022-10-26T04:02:41;1.70;;;1.60;;
25169;SDS011;13129;48.012;10.352;2022-10-26T04:05:10;1.75;;;1.50;;
25169;SDS011;13129;48.012;10.352;2022-10-26T04:07:36;2.10;;;1.42;;
25169;SDS011;13129;48.012;10.352;2022-10-26T04:10:02;1.77;;;1.60;;
25169;SDS011;13129;48.012;10.352;2022-10-26T04:12:31;3.63;;;2.10;;
25169;SDS011;13129;48.012;10.352;2022-10-26T04:15:01;2.40;;;1.70;;
25169;SDS011;13129;48.012;10.352;2022-10-26T04:17:28;3.00;;;2.10;;
25169;SDS011;13129;48.012;10.352;2022-10-26T04:20:05;2.20;;;2.00;;
25169;SDS011;13129;48.012;10.352;2022-10-26T04:22:32;2.10;;;1.83;;
25169;SDS011;13129;48.012;10.352;2022-10-26T04:28:24;2.00;;;1.80;;
25169;SDS011;13129;48.012;10.352;2022-10-26T04:31:42;2.63;;;1.73;;
25169;SDS011;13129;48.012;10.352;2022-10-26T04:34:23;2.38;;;1.83;;
25169;SDS011;13129;48.012;10.352;2022-10-26T04:37:32;2.00;;;1.80;;
25169;SDS011;13129;48.012;10.352;2022-10-26T04:40:33;3.42;;;2.10;;
25169;SDS011;13129;48.012;10.352;2022-10-26T04:43:02;3.92;;;2.45;;
25169;SDS011;13129;48.012;10.352;2022-10-26T04:45:31;2.72;;;2.05;;
25169;SDS011;13129;48.012;10.352;2022-10-26T04:48:43;2.85;;;2.38;;
25169;SDS011;13129;48.012;10.352;2022-10-26T04:51:36;3.55;;;2.40;;
25169;SDS011;13129;48.012;10.352;2022-10-26T04:54:10;3.45;;;2.42;;
25169;SDS011;13129;48.012;10.352;2022-10-26T04:56:36;3.10;;;2.40;;
25169;SDS011;13129;48.012;10.352;2022-10-26T04:59:08;2.38;;;2.17;;
25169;SDS011;13129;48.012;10.352;2022-10-26T05:01:34;5.40;;;2.13;;
25169;SDS011;13129;48.012;10.352;2022-10-26T05:03:59;53.17;;;19.13;;
25169;SDS011;13129;48.012;10.352;2022-10-26T05:06:25;8.27;;;4.35;;
25169;SDS011;13129;48.012;10.352;2022-10-26T05:08:51;3.03;;;2.33;;
25169;SDS011;13129;48.012;10.352;2022-10-26T05:11:17;2.65;;;2.45;;
25169;SDS011;13129;48.012;10.352;2022-10-26T05:13:42;4.47;;;3.00;;
25169;SDS011;13129;48.012;10.352;2022-10-26T05:16:08;3.95;;;3.53;;
25169;SDS011;13129;48.012;10.352;2022-10-26T05:18:34;4.03;;;3.50;;
25169;SDS011;13129;48.012;10.352;2022-10-26T05:20:59;2.70;;;2.50;;
25169;SDS011;13129;48.012;10.352;2022-10-26T05:23:25;2.75;;;2.45;;
25169;SDS011;13129;48.012;10.352;2022-10-26T05:25:54;3.22;;;2.58;;
25169;SDS011;13129;48.012;10.352;2022-10-26T05:28:21;2.75;;;2.45;;
25169;SDS011;13129;48.012;10.352;2022-10-26T05:30:57;3.25;;;2.20;;
25169;SDS011;13129;48.012;10.352;2022-10-26T05:33:25;4.05;;;2.22;;
25169;SDS011;13129;48.012;10.352;2022-10-26T05:35:54;4.30;;;2.38;;
25169;SDS011;13129;48.012;10.352;2022-10-26T05:38:20;2.95;;;2.40;;
25169;SDS011;13129;48.012;10.352;2022-10-26T05:40:49;3.03;;;2.60;;
25169;SDS011;13129;48.012;10.352;2022-10-26T05:43:16;4.03;;;3.00;;
25169;SDS011;13129;48.012;10.352;2022-10-26T05:45:44;3.30;;;2.65;;
25169;SDS011;13129;48.012;10.352;2022-10-26T05:48:10;5.05;;;3.10;;
25169;SDS011;13129;48.012;10.352;2022-10-26T05:50:39;4.03;;;2.80;;
25169;SDS011;13129;48.012;10.352;2022-10-26T05:53:05;2.47;;;2.28;;
25169;SDS011;13129;48.012;10.352;2022-10-26T05:55:31;2.80;;;2.40;;
25169;SDS011;13129;48.012;10.352;2022-10-26T05:57:57;2.47;;;2.22;;
25169;SDS011;13129;48.012;10.352;2022-10-26T06:00:26;2.67;;;2.00;;
25169;SDS011;13129;48.012;10.352;2022-10-26T06:08:27;3.33;;;2.05;;
25169;SDS011;13129;48.012;10.352;2022-10-26T06:10:54;2.85;;;2.10;;
25169;SDS011;13129;48.012;10.352;2022-10-26T06:13:24;2.25;;;2.05;;
25169;SDS011;13129;48.012;10.352;2022-10-26T06:18:58;3.95;;;2.30;;
25169;SDS011;13129;48.012;10.352;2022-10-26T06:24:35;2.53;;;1.80;;
25169;SDS011;13129;48.012;10.352;2022-10-26T06:32:25;6.47;;;3.63;;
25169;SDS011;13129;48.012;10.352;2022-10-26T06:34:54;2.33;;;2.13;;
25169;SDS011;13129;48.012;10.352;2022-10-26T06:37:34;6.38;;;2.58;;
25169;SDS011;13129;48.012;10.352;2022-10-26T06:40:01;3.42;;;1.98;;
25169;SDS011;13129;48.012;10.352;2022-10-26T06:42:28;3.78;;;2.60;;
25169;SDS011;13129;48.012;10.352;2022-10-26T06:44:56;3.33;;;3.03;;
25169;SDS011;13129;48.012;10.352;2022-10-26T06:47:23;3.55;;;2.40;;
25169;SDS011;13129;48.012;10.352;2022-10-26T06:55:20;2.60;;;2.40;;
25169;SDS011;13129;48.012;10.352;2022-10-26T06:57:47;3.78;;;2.38;;
25169;SDS011;13129;48.012;10.352;2022-10-26T07:02:44;2.80;;;2.03;;
25169;SDS011;13129;48.012;10.352;2022-10-26T07:05:10;3.03;;;2.10;;
25169;SDS011;13129;48.012;10.352;2022-10-26T07:07:40;2.53;;;2.10;;
25169;SDS011;13129;48.012;10.352;2022-10-26T07:10:11;4.07;;;1.92;;
25169;SDS011;13129;48.012;10.352;2022-10-26T07:12:38;4.55;;;2.80;;
25169;SDS011;13129;48.012;10.352;2022-10-26T07:15:24;2.90;;;2.08;;
25169;SDS011;13129;48.012;10.352;2022-10-26T07:18:16;2.58;;;2.38;;
25169;SDS011;13129;48.012;10.352;2022-10-26T07:39:21;1.90;;;1.50;;
25169;SDS011;13129;48.012;10.352;2022-10-26T07:45:04;2.00;;;1.55;;
25169;SDS011;13129;48.012;10.352;2022-10-26T07:47:34;2.60;;;1.50;;
25169;SDS011;13129;48.012;10.352;2022-10-26T07:52:43;4.00;;;1.80;;
25169;SDS011;13129;48.012;10.352;2022-10-26T07:55:10;2.97;;;1.65;;
25169;SDS011;13129;48.012;10.352;2022-10-26T07:57:36;1.90;;;1.35;;
25169;SDS011;13129;48.012;10.352;2022-10-26T08:00:04;3.42;;;1.35;;
25169;SDS011;13129;48.012;10.352;2022-10-26T08:02:37;3.55;;;1.63;;
25169;SDS011;13129;48.012;10.352;2022-10-26T08:05:06;2.25;;;1.38;;
25169;SDS011;13129;48.012;10.352;2022-10-26T08:07:32;3.63;;;1.80;;
25169;SDS011;13129;48.012;10.352;2022-10-26T08:10:11;2.50;;;1.60;;
25169;SDS011;13129;48.012;10.352;2022-10-26T08:12:42;4.00;;;1.90;;
25169;SDS011;13129;48.012;10.352;2022-10-26T08:15:11;4.88;;;1.50;;
25169;SDS011;13129;48.012;10.352;2022-10-26T08:18:25;1.88;;;1.27;;
25169;SDS011;13129;48.012;10.352;2022-10-26T08:20:41;4.00;;;1.50;;
25169;SDS011;13129;48.012;10.352;2022-10-26T08:23:30;4.78;;;1.77;;
25169;SDS011;13129;48.012;10.352;2022-10-26T08:26:15;1.75;;;1.50;;
25169;SDS011;13129;48.012;10.352;2022-10-26T08:29:06;4.47;;;1.52;;
25169;SDS011;13129;48.012;10.352;2022-10-26T08:31:39;4.22;;;1.50;;
25169;SDS011;13129;48.012;10.352;2022-10-26T08:37:07;2.35;;;1.83;;
25169;SDS011;13129;48.012;10.352;2022-10-26T08:39:43;2.83;;;1.63;;
25169;SDS011;13129;48.012;10.352;2022-10-26T08:42:21;1.35;;;1.25;;
25169;SDS011;13129;48.012;10.352;2022-10-26T08:45:05;2.85;;;1.60;;
25169;SDS011;13129;48.012;10.352;2022-10-26T08:47:46;3.83;;;2.63;;
25169;SDS011;13129;48.012;10.352;2022-10-26T08:52:53;3.95;;;1.90;;
25169;SDS011;13129;48.012;10.352;2022-10-26T08:55:42;4.50;;;1.83;;
25169;SDS011;13129;48.012;10.352;2022-10-26T08:58:13;3.33;;;1.65;;
25169;SDS011;13129;48.012;10.352;2022-10-26T09:00:43;1.88;;;1.23;;
25169;SDS011;13129;48.012;10.352;2022-10-26T09:03:13;2.92;;;1.50;;
25169;SDS011;13129;48.012;10.352;2022-10-26T09:08:32;4.88;;;1.30;;
25169;SDS011;13129;48.012;10.352;2022-10-26T09:14:24;2.80;;;1.60;;
25169;SDS011;13129;48.012;10.352;2022-10-26T09:17:21;1.48;;;1.20;;
25169;SDS011;13129;48.012;10.352;2022-10-26T09:29:16;1.33;;;1.10;;
25169;SDS011;13129;48.012;10.352;2022-10-26T09:31:44;2.65;;;1.30;;
25169;SDS011;13129;48.012;10.352;2022-10-26T09:34:18;3.13;;;1.60;;
25169;SDS011;13129;48.012;10.352;2022-10-26T09:37:26;3.13;;;1.50;;
25169;SDS011;13129;48.012;10.352;2022-10-26T09:45:36;4.57;;;1.70;;
25169;SDS011;13129;48.012;10.352;2022-10-26T09:51:09;4.65;;;1.80;;
25169;SDS011;13129;48.012;10.352;2022-10-26T09:53:35;4.93;;;1.73;;
25169;SDS011;13129;48.012;10.352;2022-10-26T09:56:06;2.70;;;1.60;;
25169;SDS011;13129;48.012;10.352;2022-10-26T09:58:56;3.83;;;1.70;;
25169;SDS011;13129;48.012;10.352;2022-10-26T10:06:38;2.78;;;1.73;;
25169;SDS011;13129;48.012;10.352;2022-10-26T10:09:06;3.88;;;1.63;;
25169;SDS011;13129;48.012;10.352;2022-10-26T10:11:37;4.43;;;1.70;;
25169;SDS011;13129;48.012;10.352;2022-10-26T10:14:26;3.90;;;1.70;;
25169;SDS011;13129;48.012;10.352;2022-10-26T10:17:01;3.10;;;1.60;;
25169;SDS011;13129;48.012;10.352;2022-10-26T10:19:32;2.88;;;1.80;;
25169;SDS011;13129;48.012;10.352;2022-10-26T10:22:01;3.30;;;1.63;;
25169;SDS011;13129;48.012;10.352;2022-10-26T10:24:52;3.00;;;1.48;;
25169;SDS011;13129;48.012;10.352;2022-10-26T10:27:22;3.65;;;1.65;;
25169;SDS011;13129;48.012;10.352;2022-10-26T10:29:52;6.57;;;1.75;;
25169;SDS011;13129;48.012;10.352;2022-10-26T10:34:48;4.35;;;1.67;;
25169;SDS011;13129;48.012;10.352;2022-10-26T10:42:46;3.10;;;1.60;;
25169;SDS011;13129;48.012;10.352;2022-10-26T10:45:24;6.72;;;1.90;;
25169;SDS011;13129;48.012;10.352;2022-10-26T10:50:52;4.05;;;1.67;;
25169;SDS011;13129;48.012;10.352;2022-10-26T10:58:54;3.22;;;1.48;;
25169;SDS011;13129;48.012;10.352;2022-10-26T11:01:43;2.83;;;1.90;;
25169;SDS011;13129;48.012;10.352;2022-10-26T11:07:29;3.63;;;1.33;;
25169;SDS011;13129;48.012;10.352;2022-10-26T11:10:01;4.20;;;1.50;;
25169;SDS011;13129;48.012;10.352;2022-10-26T11:12:37;2.10;;;1.42;;
25169;SDS011;13129;48.012;10.352;2022-10-26T11:15:14;2.45;;;2.13;;
25169;SDS011;13129;48.012;10.352;2022-10-26T11:18:00;2.67;;;1.50;;
25169;SDS011;13129;48.012;10.352;2022-10-26T11:20:37;3.78;;;1.67;;
25169;SDS011;13129;48.012;10.352;2022-10-26T11:23:20;3.25;;;1.58;;
25169;SDS011;13129;48.012;10.352;2022-10-26T11:25:55;3.28;;;1.35;;
25169;SDS011;13129;48.012;10.352;2022-10-26T11:31:19;3.70;;;1.65;;
25169;SDS011;13129;48.012;10.352;2022-10-26T11:36:40;1.98;;;1.38;;
25169;SDS011;13129;48.012;10.352;2022-10-26T11:44:30;3.30;;;1.52;;
25169;SDS011;13129;48.012;10.352;2022-10-26T11:47:27;1.90;;;1.60;;
25169;SDS011;13129;48.012;10.352;2022-10-26T11:53:00;4.95;;;1.73;;
25169;SDS011;13129;48.012;10.352;2022-10-26T11:55:35;5.00;;;2.05;;
25169;SDS011;13129;48.012;10.352;2022-10-26T11:58:04;4.63;;;1.63;;
25169;SDS011;13129;48.012;10.352;2022-10-26T12:00:32;5.32;;;2.03;;
25169;SDS011;13129;48.012;10.352;2022-10-26T12:03:01;4.32;;;1.58;;
25169;SDS011;13129;48.012;10.352;2022-10-26T12:05:35;6.30;;;1.98;;
25169;SDS011;13129;48.012;10.352;2022-10-26T12:08:19;4.55;;;2.10;;
25169;SDS011;13129;48.012;10.352;2022-10-26T12:10:57;5.47;;;1.90;;
25169;SDS011;13129;48.012;10.352;2022-10-26T12:19:08;5.40;;;2.00;;
25169;SDS011;13129;48.012;10.352;2022-10-26T12:21:41;4.78;;;2.00;;
25169;SDS011;13129;48.012;10.352;2022-10-26T12:24:24;6.80;;;2.88;;
25169;SDS011;13129;48.012;10.352;2022-10-26T12:26:57;4.07;;;2.00;;
25169;SDS011;13129;48.012;10.352;2022-10-26T12:29:32;3.45;;;2.08;;
25169;SDS011;13129;48.012;10.352;2022-10-26T12:35:02;4.72;;;2.00;;
25169;SDS011;13129;48.012;10.352;2022-10-26T12:37:49;5.55;;;2.00;;
25169;SDS011;13129;48.012;10.352;2022-10-26T12:45:39;5.53;;;2.13;;
25169;SDS011;13129;48.012;10.352;2022-10-26T12:48:21;2.30;;;2.10;;
25169;SDS011;13129;48.012;10.352;2022-10-26T12:57:19;3.72;;;1.60;;
25169;SDS011;13129;48.012;10.352;2022-10-26T13:02:51;6.03;;;1.98;;
25169;SDS011;13129;48.012;10.352;2022-10-26T13:08:46;3.55;;;2.42;;
25169;SDS011;13129;48.012;10.352;2022-10-26T13:11:17;3.22;;;1.92;;
25169;SDS011;13129;48.012;10.352;2022-10-26T13:14:06;3.28;;;2.00;;
25169;SDS011;13129;48.012;10.352;2022-10-26T13:16:45;5.00;;;1.65;;
25169;SDS011;13129;48.012;10.352;2022-10-26T13:19:24;3.80;;;2.25;;
25169;SDS011;13129;48.012;10.352;2022-10-26T13:21:56;3.70;;;1.83;;
25169;SDS011;13129;48.012;10.352;2022-10-26T13:24:25;4.38;;;2.00;;
25169;SDS011;13129;48.012;10.352;2022-10-26T13:27:39;5.72;;;2.97;;
25169;SDS011;13129;48.012;10.352;2022-10-26T13:33:00;8.18;;;2.97;;
25169;SDS011;13129;48.012;10.352;2022-10-26T13:35:27;5.50;;;2.50;;
25169;SDS011;13129;48.012;10.352;2022-10-26T13:37:55;5.18;;;2.45;;
25169;SDS011;13129;48.012;10.352;2022-10-26T13:40:25;3.92;;;2.35;;
25169;SDS011;13129;48.012;10.352;2022-10-26T13:45:28;7.25;;;2.50;;
25169;SDS011;13129;48.012;10.352;2022-10-26T13:48:17;4.47;;;2.22;;
25169;SDS011;13129;48.012;10.352;2022-10-26T13:51:12;8.10;;;2.78;;
25169;SDS011;13129;48.012;10.352;2022-10-26T13:56:27;3.95;;;2.60;;
25169;SDS011;13129;48.012;10.352;2022-10-26T13:59:15;8.15;;;3.42;;
25169;SDS011;13129;48.012;10.352;2022-10-26T14:01:41;5.15;;;2.20;;
25169;SDS011;13129;48.012;10.352;2022-10-26T14:07:02;3.85;;;2.45;;
25169;SDS011;13129;48.012;10.352;2022-10-26T14:09:29;5.63;;;2.63;;
25169;SDS011;13129;48.012;10.352;2022-10-26T14:11:56;3.40;;;2.30;;
25169;SDS011;13129;48.012;10.352;2022-10-26T14:19:27;5.97;;;3.03;;
25169;SDS011;13129;48.012;10.352;2022-10-26T14:21:56;5.90;;;2.15;;
25169;SDS011;13129;48.012;10.352;2022-10-26T14:24:30;5.60;;;3.42;;
25169;SDS011;13129;48.012;10.352;2022-10-26T14:27:18;5.03;;;3.10;;
25169;SDS011;13129;48.012;10.352;2022-10-26T14:29:46;4.25;;;2.67;;
25169;SDS011;13129;48.012;10.352;2022-10-26T14:32:18;5.20;;;3.55;;
25169;SDS011;13129;48.012;10.352;2022-10-26T14:34:46;4.82;;;3.17;;
25169;SDS011;13129;48.012;10.352;2022-10-26T14:37:13;8.00;;;3.40;;
25169;SDS011;13129;48.012;10.352;2022-10-26T14:39:55;8.95;;;3.40;;
25169;SDS011;13129;48.012;10.352;2022-10-26T14:42:29;5.63;;;3.25;;
25169;SDS011;13129;48.012;10.352;2022-10-26T14:45:02;6.05;;;2.95;;
25169;SDS011;13129;48.012;10.352;2022-10-26T14:47:29;7.18;;;3.20;;
25169;SDS011;13129;48.012;10.352;2022-10-26T14:49:57;8.60;;;3.40;;
25169;SDS011;13129;48.012;10.352;2022-10-26T14:52:25;10.05;;;3.17;;
25169;SDS011;13129;48.012;10.352;2022-10-26T14:55:01;6.35;;;2.78;;
25169;SDS011;13129;48.012;10.352;2022-10-26T15:00:13;5.40;;;2.78;;
25169;SDS011;13129;48.012;10.352;2022-10-26T15:02:47;5.05;;;2.70;;
25169;SDS011;13129;48.012;10.352;2022-10-26T15:05:27;5.97;;;3.20;;
25169;SDS011;13129;48.012;10.352;2022-10-26T15:07:56;5.90;;;3.05;;
25169;SDS011;13129;48.012;10.352;2022-10-26T15:16:30;6.53;;;2.92;;
25169;SDS011;13129;48.012;10.352;2022-10-26T15:18:51;5.50;;;3.03;;
25169;SDS011;13129;48.012;10.352;2022-10-26T15:21:29;4.25;;;2.80;;
25169;SDS011;13129;48.012;10.352;2022-10-26T15:23:59;7.60;;;3.55;;
25169;SDS011;13129;48.012;10.352;2022-10-26T15:26:30;6.47;;;3.20;;
25169;SDS011;13129;48.012;10.352;2022-10-26T15:28:56;5.32;;;2.80;;
25169;SDS011;13129;48.012;10.352;2022-10-26T15:31:28;6.70;;;3.00;;
25169;SDS011;13129;48.012;10.352;2022-10-26T15:36:31;5.68;;;3.30;;
25169;SDS011;13129;48.012;10.352;2022-10-26T15:38:59;7.47;;;3.13;;
25169;SDS011;13129;48.012;10.352;2022-10-26T15:41:29;7.97;;;3.63;;
25169;SDS011;13129;48.012;10.352;2022-10-26T15:44:01;6.25;;;3.35;;
25169;SDS011;13129;48.012;10.352;2022-10-26T15:46:36;7.03;;;3.25;;
25169;SDS011;13129;48.012;10.352;2022-10-26T15:49:06;6.22;;;3.50;;
25169;SDS011;13129;48.012;10.352;2022-10-26T15:51:43;8.45;;;3.90;;
25169;SDS011;13129;48.012;10.352;2022-10-26T15:54:10;7.80;;;3.92;;
25169;SDS011;13129;48.012;10.352;2022-10-26T15:56:53;8.52;;;3.60;;
25169;SDS011;13129;48.012;10.352;2022-10-26T15:59:33;8.05;;;3.63;;
25169;SDS011;13129;48.012;10.352;2022-10-26T16:02:04;9.00;;;3.58;;
25169;SDS011;13129;48.012;10.352;2022-10-26T16:04:42;9.57;;;3.63;;
25169;SDS011;13129;48.012;10.352;2022-10-26T16:07:12;7.82;;;4.25;;
25169;SDS011;13129;48.012;10.352;2022-10-26T16:10:04;13.75;;;4.95;;
25169;SDS011;13129;48.012;10.352;2022-10-26T16:12:38;10.23;;;5.07;;
25169;SDS011;13129;48.012;10.352;2022-10-26T16:15:53;7.57;;;4.10;;
25169;SDS011;13129;48.012;10.352;2022-10-26T16:18:09;7.20;;;4.28;;
25169;SDS011;13129;48.012;10.352;2022-10-26T16:20:37;7.45;;;4.47;;
25169;SDS011;13129;48.012;10.352;2022-10-26T16:23:09;5.57;;;3.75;;
25169;SDS011;13129;48.012;10.352;2022-10-26T16:25:39;11.45;;;4.95;;
25169;SDS011;13129;48.012;10.352;2022-10-26T16:28:24;8.57;;;4.38;;
25169;SDS011;13129;48.012;10.352;2022-10-26T16:30:49;9.68;;;5.13;;
25169;SDS011;13129;48.012;10.352;2022-10-26T16:33:15;13.30;;;6.30;;
25169;SDS011;13129;48.012;10.352;2022-10-26T16:35:41;12.27;;;8.43;;
25169;SDS011;13129;48.012;10.352;2022-10-26T16:38:06;12.85;;;7.22;;
25169;SDS011;13129;48.012;10.352;2022-10-26T16:40:33;11.85;;;8.23;;
25169;SDS011;13129;48.012;10.352;2022-10-26T16:42:59;13.43;;;8.43;;
25169;SDS011;13129;48.012;10.352;2022-10-26T16:45:25;12.70;;;9.48;;
25169;SDS011;13129;48.012;10.352;2022-10-26T16:47:50;10.77;;;9.18;;
25169;SDS011;13129;48.012;10.352;2022-10-26T16:50:16;15.45;;;9.73;;
25169;SDS011;13129;48.012;10.352;2022-10-26T16:52:45;12.40;;;8.48;;
25169;SDS011;13129;48.012;10.352;2022-10-26T16:55:10;12.68;;;7.65;;
25169;SDS011;13129;48.012;10.352;2022-10-26T16:57:36;11.77;;;6.90;;
25169;SDS011;13129;48.012;10.352;2022-10-26T17:00:05;8.57;;;5.75;;
25169;SDS011;13129;48.012;10.352;2022-10-26T17:02:32;8.13;;;5.20;;
25169;SDS011;13129;48.012;10.352;2022-10-26T17:04:57;10.52;;;6.28;;
25169;SDS011;13129;48.012;10.352;2022-10-26T17:22:20;8.63;;;4.90;;
25169;SDS011;13129;48.012;10.352;2022-10-26T17:49:27;9.70;;;6.38;;
25169;SDS011;13129;48.012;10.352;2022-10-26T17:52:44;9.45;;;5.60;;
25169;SDS011;13129;48.012;10.352;2022-10-26T17:55:58;9.55;;;6.53;;
25169;SDS011;13129;48.012;10.352;2022-10-26T17:59:00;12.73;;;7.13;;
25169;SDS011;13129;48.012;10.352;2022-10-26T18:01:37;15.43;;;7.57;;
25169;SDS011;13129;48.012;10.352;2022-10-26T18:04:27;12.80;;;5.53;;
25169;SDS011;13129;48.012;10.352;2022-10-26T18:06:52;7.47;;;4.80;;
25169;SDS011;13129;48.012;10.352;2022-10-26T18:09:18;7.80;;;4.28;;
25169;SDS011;13129;48.012;10.352;2022-10-26T18:11:44;10.43;;;4.13;;
25169;SDS011;13129;48.012;10.352;2022-10-26T18:14:10;10.98;;;4.82;;
25169;SDS011;13129;48.012;10.352;2022-10-26T18:16:41;11.10;;;5.38;;
25169;SDS011;13129;48.012;10.352;2022-10-26T18:19:30;7.55;;;4.72;;
25169;SDS011;13129;48.012;10.352;2022-10-26T18:21:59;11.15;;;4.90;;
25169;SDS011;13129;48.012;10.352;2022-10-26T18:24:25;8.55;;;5.65;;
25169;SDS011;13129;48.012;10.352;2022-10-26T18:26:54;7.32;;;3.80;;
25169;SDS011;13129;48.012;10.352;2022-10-26T18:29:20;5.53;;;3.70;;
25169;SDS011;13129;48.012;10.352;2022-10-26T18:31:45;11.27;;;6.38;;
25169;SDS011;13129;48.012;10.352;2022-10-26T18:34:11;7.68;;;3.70;;
25169;SDS011;13129;48.012;10.352;2022-10-26T18:36:37;8.30;;;4.90;;
25169;SDS011;13129;48.012;10.352;2022-10-26T18:39:02;11.15;;;6.07;;
25169;SDS011;13129;48.012;10.352;2022-10-26T18:41:28;10.80;;;6.10;;
25169;SDS011;13129;48.012;10.352;2022-10-26T18:43:55;9.77;;;5.63;;
25169;SDS011;13129;48.012;10.352;2022-10-26T18:46:25;11.83;;;7.40;;
25169;SDS011;13129;48.012;10.352;2022-10-26T18:48:53;10.55;;;7.88;;
25169;SDS011;13129;48.012;10.352;2022-10-26T18:51:20;12.65;;;7.00;;
25169;SDS011;13129;48.012;10.352;2022-10-26T18:53:47;10.68;;;6.72;;
25169;SDS011;13129;48.012;10.352;2022-10-26T18:56:14;10.60;;;6.43;;
25169;SDS011;13129;48.012;10.352;2022-10-26T18:58:43;7.30;;;4.75;;
25169;SDS011;13129;48.012;10.352;2022-10-26T19:03:46;9.93;;;5.28;;
25169;SDS011;13129;48.012;10.352;2022-10-26T19:06:16;6.95;;;5.22;;
25169;SDS011;13129;48.012;10.352;2022-10-26T19:08:44;8.80;;;4.88;;
25169;SDS011;13129;48.012;10.352;2022-10-26T19:11:11;6.55;;;4.57;;
25169;SDS011;13129;48.012;10.352;2022-10-26T19:13:40;9.90;;;5.05;;
25169;SDS011;13129;48.012;10.352;2022-10-26T19:16:08;13.38;;;6.07;;
25169;SDS011;13129;48.012;10.352;2022-10-26T19:18:38;9.15;;;5.70;;
25169;SDS011;13129;48.012;10.352;2022-10-26T19:21:15;9.85;;;5.75;;
25169;SDS011;13129;48.012;10.352;2022-10-26T19:23:44;8.93;;;6.20;;
25169;SDS011;13129;48.012;10.352;2022-10-26T19:26:12;12.60;;;6.95;;
25169;SDS011;13129;48.012;10.352;2022-10-26T19:28:39;12.05;;;6.25;;
25169;SDS011;13129;48.012;10.352;2022-10-26T19:31:06;14.45;;;8.57;;
25169;SDS011;13129;48.012;10.352;2022-10-26T19:33:34;10.50;;;7.13;;
25169;SDS011;13129;48.012;10.352;2022-10-26T19:36:00;10.05;;;6.68;;
25169;SDS011;13129;48.012;10.352;2022-10-26T19:38:28;11.60;;;6.15;;
25169;SDS011;13129;48.012;10.352;2022-10-26T19:40:55;10.52;;;6.65;;
25169;SDS011;13129;48.012;10.352;2022-10-26T19:43:25;9.23;;;6.28;;
25169;SDS011;13129;48.012;10.352;2022-10-26T19:45:53;12.35;;;6.28;;
25169;SDS011;13129;48.012;10.352;2022-10-26T19:48:19;11.80;;;6.63;;
25169;SDS011;13129;48.012;10.352;2022-10-26T19:50:49;9.65;;;6.30;;
25169;SDS011;13129;48.012;10.352;2022-10-26T19:53:17;10.10;;;5.72;;
25169;SDS011;13129;48.012;10.352;2022-10-26T19:55:45;10.10;;;5.80;;
25169;SDS011;13129;48.012;10.352;2022-10-26T19:58:11;7.18;;;5.15;;
25169;SDS011;13129;48.012;10.352;2022-10-26T20:00:38;8.32;;;5.30;;
25169;SDS011;13129;48.012;10.352;2022-10-26T20:03:04;7.10;;;5.47;;
25169;SDS011;13129;48.012;10.352;2022-10-26T20:05:30;9.77;;;5.10;;
25169;SDS011;13129;48.012;10.352;2022-10-26T20:07:56;9.90;;;5.93;;
25169;SDS011;13129;48.012;10.352;2022-10-26T20:10:22;7.25;;;5.25;;
25169;SDS011;13129;48.012;10.352;2022-10-26T20:12:47;8.88;;;5.82;;
25169;SDS011;13129;48.012;10.352;2022-10-26T20:15:13;8.27;;;5.40;;
25169;SDS011;13129;48.012;10.352;2022-10-26T20:17:39;8.38;;;5.25;;
25169;SDS011;13129;48.012;10.352;2022-10-26T20:20:04;10.02;;;5.85;;
25169;SDS011;13129;48.012;10.352;2022-10-26T20:22:31;10.85;;;6.10;;
25169;SDS011;13129;48.012;10.352;2022-10-26T20:24:56;12.25;;;6.80;;
25169;SDS011;13129;48.012;10.352;2022-10-26T20:27:22;13.55;;;7.00;;
25169;SDS011;13129;48.012;10.352;2022-10-26T20:29:48;10.60;;;6.65;;
25169;SDS011;13129;48.012;10.352;2022-10-26T20:32:14;9.70;;;7.47;;
25169;SDS011;13129;48.012;10.352;2022-10-26T20:34:40;9.77;;;7.30;;
25169;SDS011;13129;48.012;10.352;2022-10-26T20:37:07;13.25;;;7.22;;
25169;SDS011;13129;48.012;10.352;2022-10-26T20:39:33;11.88;;;6.45;;
25169;SDS011;13129;48.012;10.352;2022-10-26T20:42:00;12.73;;;7.40;;
25169;SDS011;13129;48.012;10.352;2022-10-26T20:44:28;9.38;;;7.53;;
25169;SDS011;13129;48.012;10.352;2022-10-26T20:46:55;9.63;;;7.40;;
25169;SDS011;13129;48.012;10.352;2022-10-26T20:49:21;10.80;;;7.25;;
25169;SDS011;13129;48.012;10.352;2022-10-26T20:57:41;15.70;;;7.50;;
25169;SDS011;13129;48.012;10.352;2022-10-26T21:00:17;10.00;;;6.60;;
25169;SDS011;13129;48.012;10.352;2022-10-26T21:02:43;7.70;;;6.82;;
25169;SDS011;13129;48.012;10.352;2022-10-26T21:05:09;8.75;;;6.82;;
25169;SDS011;13129;48.012;10.352;2022-10-26T21:07:35;9.63;;;7.15;;
25169;SDS011;13129;48.012;10.352;2022-10-26T21:10:01;10.55;;;7.03;;
25169;SDS011;13129;48.012;10.352;2022-10-26T21:12:26;14.35;;;7.65;;
25169;SDS011;13129;48.012;10.352;2022-10-26T21:14:52;10.02;;;6.88;;
25169;SDS011;13129;48.012;10.352;2022-10-26T21:17:17;11.57;;;6.97;;
25169;SDS011;13129;48.012;10.352;2022-10-26T21:19:43;13.02;;;8.57;;
25169;SDS011;13129;48.012;10.352;2022-10-26T21:22:09;12.73;;;8.20;;
25169;SDS011;13129;48.012;10.352;2022-10-26T21:24:34;10.23;;;7.38;;
25169;SDS011;13129;48.012;10.352;2022-10-26T21:27:00;11.10;;;7.13;;
25169;SDS011;13129;48.012;10.352;2022-10-26T21:29:27;9.88;;;7.32;;
25169;SDS011;13129;48.012;10.352;2022-10-26T21:31:52;9.50;;;7.32;;
25169;SDS011;13129;48.012;10.352;2022-10-26T21:34:18;9.45;;;6.60;;
25169;SDS011;13129;48.012;10.352;2022-10-26T21:36:44;12.07;;;6.93;;
25169;SDS011;13129;48.012;10.352;2022-10-26T21:39:09;9.88;;;6.90;;
25169;SDS011;13129;48.012;10.352;2022-10-26T21:41:35;8.02;;;6.22;;
25169;SDS011;13129;48.012;10.352;2022-10-26T21:44:04;11.30;;;6.57;;
25169;SDS011;13129;48.012;10.352;2022-10-26T21:46:29;9.60;;;7.20;;
25169;SDS011;13129;48.012;10.352;2022-10-26T21:48:55;10.27;;;6.68;;
25169;SDS011;13129;48.012;10.352;2022-10-26T21:51:21;10.57;;;7.07;;
25169;SDS011;13129;48.012;10.352;2022-10-26T21:53:46;8.18;;;6.50;;
25169;SDS011;13129;48.012;10.352;2022-10-26T21:56:14;10.00;;;6.32;;
25169;SDS011;13129;48.012;10.352;2022-10-26T21:58:41;8.32;;;6.57;;
25169;SDS011;13129;48.012;10.352;2022-10-26T22:01:07;8.40;;;5.93;;
25169;SDS011;13129;48.012;10.352;2022-10-26T22:03:39;11.32;;;6.38;;
25169;SDS011;13129;48.012;10.352;2022-10-26T22:06:08;10.97;;;6.50;;
25169;SDS011;13129;48.012;10.352;2022-10-26T22:08:36;10.35;;;6.50;;
25169;SDS011;13129;48.012;10.352;2022-10-26T22:11:05;9.10;;;5.95;;